createdAt,value
2022-11-24T00:01:18.058Z,7.19
2022-11-24T00:03:47.740Z,7.14
2022-11-24T00:06:16.281Z,7.10
2022-11-24T00:08:45.782Z,7.05
2022-11-24T00:11:15.655Z,6.99
2022-11-24T00:13:44.416Z,6.93
2022-11-24T00:16:16.420Z,6.89
2022-11-24T00:18:45.934Z,6.87
2022-11-24T00:21:15.160Z,6.85
2022-11-24T00:23:44.211Z,6.82
2022-11-24T00:26:12.431Z,6.82
2022-11-24T00:28:41.227Z,6.81
2022-11-24T00:31:20.687Z,6.82
2022-11-24T00:33:49.856Z,6.82
2022-11-24T00:36:18.858Z,6.81
2022-11-24T00:38:47.847Z,6.77
2022-11-24T00:41:16.093Z,6.76
2022-11-24T00:43:44.500Z,6.76
2022-11-24T00:46:12.971Z,6.77
2022-11-24T00:48:41.749Z,6.79
2022-11-24T00:51:11.790Z,6.82
2022-11-24T00:53:40.587Z,6.83
2022-11-24T00:56:10.085Z,6.83
2022-11-24T00:58:38.754Z,6.82
2022-11-24T01:01:18.074Z,6.80
2022-11-24T01:03:47.621Z,6.76
2022-11-24T01:06:20.295Z,6.72
2022-11-24T01:08:48.719Z,6.70
2022-11-24T01:11:28.022Z,6.68
2022-11-24T01:13:58.139Z,6.64
2022-11-24T01:16:31.836Z,6.62
2022-11-24T01:19:00.623Z,6.62
2022-11-24T01:21:28.927Z,6.64
2022-11-24T01:23:58.163Z,6.69
2022-11-24T01:26:26.712Z,6.76
2022-11-24T01:28:55.636Z,6.84
2022-11-24T01:31:24.838Z,6.91
2022-11-24T01:33:53.870Z,6.96
2022-11-24T01:36:22.558Z,6.96
2022-11-24T01:38:51.960Z,6.98
2022-11-24T01:41:21.773Z,7.03
2022-11-24T01:43:50.972Z,7.08
2022-11-24T01:46:39.617Z,7.16
2022-11-24T01:49:14.204Z,7.21
2022-11-24T01:51:46.321Z,7.23
2022-11-24T01:54:17.771Z,7.19
2022-11-24T01:56:48.507Z,7.12
2022-11-24T01:59:18.117Z,7.09
2022-11-24T02:01:48.607Z,7.04
2022-11-24T02:04:19.787Z,6.98
2022-11-24T02:06:48.578Z,6.88
2022-11-24T02:09:21.528Z,6.80
2022-11-24T02:11:49.944Z,6.77
2022-11-24T02:14:19.085Z,6.70
2022-11-24T02:16:49.673Z,6.60
2022-11-24T02:19:36.997Z,6.54
2022-11-24T02:22:09.369Z,6.48
2022-11-24T02:24:41.617Z,6.47
2022-11-24T02:27:11.420Z,6.48
2022-11-24T02:29:40.183Z,6.48
2022-11-24T02:32:10.465Z,6.51
2022-11-24T02:34:39.049Z,6.53
2022-11-24T02:37:07.538Z,6.53
2022-11-24T02:39:36.218Z,6.54
2022-11-24T02:42:10.127Z,6.55
2022-11-24T02:44:41.681Z,6.56
2022-11-24T02:47:12.237Z,6.54
2022-11-24T02:49:40.898Z,6.53
2022-11-24T02:52:09.489Z,6.51
2022-11-24T02:54:38.067Z,6.50
2022-11-24T02:57:06.477Z,6.51
2022-11-24T02:59:35.030Z,6.52
2022-11-24T03:02:03.803Z,6.56
2022-11-24T03:04:32.434Z,6.58
2022-11-24T03:07:01.193Z,6.61
2022-11-24T03:09:30.542Z,6.64
2022-11-24T03:11:58.876Z,6.66
2022-11-24T03:14:27.666Z,6.68
2022-11-24T03:16:56.249Z,6.69
2022-11-24T03:19:24.524Z,6.71
2022-11-24T03:21:53.159Z,6.74
2022-11-24T03:24:21.909Z,6.75
2022-11-24T03:26:50.379Z,6.77
2022-11-24T03:29:18.657Z,6.80
2022-11-24T03:31:47.139Z,6.82
2022-11-24T03:34:15.829Z,6.83
2022-11-24T03:36:44.205Z,6.85
2022-11-24T03:39:12.751Z,6.87
2022-11-24T03:41:41.170Z,6.88
2022-11-24T03:44:09.748Z,6.91
2022-11-24T03:46:38.129Z,6.92
2022-11-24T03:49:06.514Z,6.92
2022-11-24T03:51:34.819Z,6.95
2022-11-24T03:54:03.272Z,6.98
2022-11-24T03:56:31.549Z,6.99
2022-11-24T03:59:00.031Z,7.02
2022-11-24T04:01:28.868Z,7.05
2022-11-24T04:03:57.328Z,7.08
2022-11-24T04:06:25.786Z,7.12
2022-11-24T04:08:54.744Z,7.13
2022-11-24T04:11:42.002Z,7.17
2022-11-24T04:14:13.820Z,7.18
2022-11-24T04:16:42.778Z,7.21
2022-11-24T04:19:11.055Z,7.22
2022-11-24T04:21:39.478Z,7.24
2022-11-24T04:24:08.097Z,7.26
2022-11-24T04:26:36.371Z,7.28
2022-11-24T04:29:04.957Z,7.30
2022-11-24T04:31:33.464Z,7.32
2022-11-24T04:34:01.968Z,7.34
2022-11-24T04:36:30.405Z,7.36
2022-11-24T04:39:24.036Z,7.38
2022-11-24T04:41:47.606Z,7.41
2022-11-24T04:44:16.021Z,7.44
2022-11-24T04:46:44.357Z,7.46
2022-11-24T04:49:13.359Z,7.49
2022-11-24T04:51:41.885Z,7.51
2022-11-24T04:54:11.387Z,7.52
2022-11-24T04:56:40.786Z,7.51
2022-11-24T04:59:12.854Z,7.48
2022-11-24T05:01:42.518Z,7.44
2022-11-24T05:04:12.133Z,7.43
2022-11-24T05:06:40.857Z,7.41
2022-11-24T05:09:16.508Z,7.41
2022-11-24T05:11:44.793Z,7.41
2022-11-24T05:14:13.204Z,7.40
2022-11-24T05:16:41.693Z,7.40
2022-11-24T05:19:10.441Z,7.39
2022-11-24T05:21:38.767Z,7.37
2022-11-24T05:24:07.605Z,7.36
2022-11-24T05:26:35.894Z,7.37
2022-11-24T05:29:04.472Z,7.39
2022-11-24T05:31:32.981Z,7.40
2022-11-24T05:34:01.440Z,7.42
2022-11-24T05:36:48.886Z,7.46
2022-11-24T05:39:17.137Z,7.50
2022-11-24T05:41:45.570Z,7.54
2022-11-24T05:44:13.996Z,7.57
2022-11-24T05:46:42.296Z,7.58
2022-11-24T05:49:10.857Z,7.61
2022-11-24T05:51:39.339Z,7.64
2022-11-24T05:54:07.881Z,7.66
2022-11-24T05:56:36.097Z,7.69
2022-11-24T05:59:09.627Z,7.71
2022-11-24T06:01:39.077Z,7.74
2022-11-24T06:04:07.661Z,7.77
2022-11-24T06:06:36.377Z,7.81
2022-11-24T06:09:05.478Z,7.82
2022-11-24T06:11:34.056Z,7.82
2022-11-24T06:14:05.715Z,7.82
2022-11-24T06:16:36.868Z,7.83
2022-11-24T06:19:05.340Z,7.84
2022-11-24T06:21:33.925Z,7.86
2022-11-24T06:24:02.814Z,7.87
2022-11-24T06:26:31.195Z,7.88
2022-11-24T06:28:59.724Z,7.90
2022-11-24T06:31:28.156Z,7.92
2022-11-24T06:33:56.744Z,7.94
2022-11-24T06:36:25.838Z,7.97
2022-11-24T06:38:54.393Z,7.99
2022-11-24T06:41:23.080Z,8.02
2022-11-24T06:43:51.797Z,8.06
2022-11-24T06:46:21.143Z,8.07
2022-11-24T06:48:53.331Z,8.10
2022-11-24T06:51:21.871Z,8.13
2022-11-24T06:53:50.229Z,8.13
2022-11-24T06:56:20.005Z,8.13
2022-11-24T06:58:49.653Z,8.14
2022-11-24T07:01:19.421Z,8.14
2022-11-24T07:03:48.766Z,8.10
2022-11-24T07:06:17.760Z,8.09
2022-11-24T07:08:46.414Z,8.07
2022-11-24T07:11:16.464Z,8.05
2022-11-24T07:13:45.356Z,8.02
2022-11-24T07:16:18.388Z,8.02
2022-11-24T07:18:47.419Z,8.04
2022-11-24T07:21:15.797Z,8.06
2022-11-24T07:23:44.537Z,8.08
2022-11-24T07:26:13.094Z,8.12
2022-11-24T07:28:41.780Z,8.17
2022-11-24T07:31:11.871Z,8.19
2022-11-24T07:33:40.585Z,8.21
2022-11-24T07:36:09.250Z,8.23
2022-11-24T07:38:37.856Z,8.24
2022-11-24T07:41:07.633Z,8.30
2022-11-24T07:43:36.767Z,8.34
2022-11-24T07:46:06.712Z,8.37
2022-11-24T07:48:35.431Z,8.41
2022-11-24T07:51:04.876Z,8.46
2022-11-24T07:53:33.751Z,8.48
2022-11-24T07:56:03.545Z,8.49
2022-11-24T07:58:33.473Z,8.44
2022-11-24T08:01:12.799Z,8.48
2022-11-24T08:03:41.988Z,8.48
2022-11-24T08:06:31.892Z,8.52
2022-11-24T08:08:59.491Z,8.54
2022-11-24T08:11:28.075Z,8.56
2022-11-24T08:13:56.347Z,8.57
2022-11-24T08:16:25.473Z,8.58
2022-11-24T08:18:54.646Z,8.60
2022-11-24T08:21:23.787Z,8.59
2022-11-24T08:23:56.320Z,8.56
2022-11-24T08:26:25.609Z,8.56
2022-11-24T08:28:55.527Z,8.60
2022-11-24T08:31:26.365Z,8.62
2022-11-24T08:33:56.007Z,8.63
2022-11-24T08:36:24.349Z,8.63
2022-11-24T08:38:57.646Z,8.63
2022-11-24T08:41:26.536Z,8.65
2022-11-24T08:43:55.374Z,8.69
2022-11-24T08:46:24.218Z,8.75
2022-11-24T08:48:53.617Z,8.84
2022-11-24T08:51:23.901Z,8.87
2022-11-24T08:53:59.365Z,8.89
2022-11-24T08:56:28.536Z,8.86
2022-11-24T08:58:57.460Z,8.83
2022-11-24T09:01:26.966Z,8.76
2022-11-24T09:03:56.000Z,8.66
2022-11-24T09:06:25.898Z,8.58
2022-11-24T09:08:54.892Z,8.56
2022-11-24T09:11:23.811Z,8.54
2022-11-24T09:13:52.674Z,8.52
2022-11-24T09:16:22.958Z,8.53
2022-11-24T09:18:58.115Z,8.57
2022-11-24T09:21:27.238Z,8.56
2022-11-24T09:23:56.434Z,8.56
2022-11-24T09:26:26.589Z,8.53
2022-11-24T09:28:55.820Z,8.53
2022-11-24T09:31:25.535Z,8.53
2022-11-24T09:33:54.251Z,8.50
2022-11-24T09:36:22.837Z,8.48
2022-11-24T09:38:51.242Z,8.44
2022-11-24T09:41:32.089Z,8.46
2022-11-24T09:44:08.570Z,8.46
2022-11-24T09:46:49.829Z,8.50
2022-11-24T09:49:22.417Z,8.54
2022-11-24T09:51:53.154Z,8.57
2022-11-24T09:54:26.766Z,8.68
2022-11-24T09:56:58.208Z,8.74
2022-11-24T09:59:27.719Z,8.74
2022-11-24T10:01:57.002Z,8.77
2022-11-24T10:04:29.995Z,8.77
2022-11-24T10:07:16.305Z,8.77
2022-11-24T10:10:00.185Z,8.75
2022-11-24T10:12:38.144Z,8.80
2022-11-24T10:15:25.883Z,8.83
2022-11-24T10:17:54.678Z,8.82
2022-11-24T10:20:23.077Z,8.77
2022-11-24T10:22:58.702Z,8.78
2022-11-24T10:25:37.985Z,8.74
2022-11-24T10:28:10.822Z,8.68
2022-11-24T10:30:39.405Z,8.62
2022-11-24T10:33:28.800Z,8.55
2022-11-24T10:36:03.917Z,8.51
2022-11-24T10:38:47.553Z,8.51
2022-11-24T10:41:24.889Z,8.48
2022-11-24T10:43:53.596Z,8.47
2022-11-24T10:46:24.497Z,8.48
2022-11-24T10:49:04.526Z,8.50
2022-11-24T10:51:37.610Z,8.53
2022-11-24T10:54:07.731Z,8.57
2022-11-24T10:56:40.621Z,8.62
2022-11-24T10:59:24.523Z,8.63
2022-11-24T11:01:53.344Z,8.66
2022-11-24T11:04:25.725Z,8.70
2022-11-24T11:07:07.459Z,8.73
2022-11-24T11:09:36.357Z,8.80
2022-11-24T11:12:42.192Z,8.86
2022-11-24T11:15:20.685Z,8.91
2022-11-24T11:17:50.553Z,8.97
2022-11-24T11:20:22.561Z,8.98
2022-11-24T11:22:51.208Z,8.98
2022-11-24T11:25:19.731Z,8.99
2022-11-24T11:27:49.031Z,9.00
2022-11-24T11:36:10.389Z,9.08
2022-11-24T11:38:39.491Z,9.10
2022-11-24T11:41:14.213Z,9.15
2022-11-24T11:43:45.792Z,9.19
2022-11-24T11:46:18.648Z,9.16
2022-11-24T11:48:47.751Z,9.14
2022-11-24T11:51:23.916Z,9.14
2022-11-24T11:54:01.956Z,9.14
2022-11-24T11:56:33.163Z,9.17
2022-11-24T11:59:02.056Z,9.23
2022-11-24T12:01:30.335Z,9.27
2022-11-24T12:04:17.712Z,9.27
2022-11-24T12:07:05.191Z,9.27
2022-11-24T12:09:56.981Z,9.27
2022-11-24T12:12:40.654Z,9.31
2022-11-24T12:15:20.398Z,9.29
2022-11-24T12:17:54.825Z,9.30
2022-11-24T12:20:32.517Z,9.30
2022-11-24T12:23:07.143Z,9.30
2022-11-24T12:25:45.878Z,9.33
2022-11-24T12:28:14.453Z,9.40
2022-11-24T12:30:47.131Z,9.40
2022-11-24T12:33:28.617Z,9.36
2022-11-24T12:36:17.273Z,9.33
2022-11-24T12:38:48.828Z,9.29
2022-11-24T12:44:17.008Z,9.24
2022-11-24T12:46:59.978Z,9.21
2022-11-24T12:49:40.612Z,9.18
2022-11-24T12:52:20.665Z,9.20
2022-11-24T12:54:49.134Z,9.21
2022-11-24T12:57:31.123Z,9.29
2022-11-24T13:00:09.050Z,9.83
2022-11-24T13:02:43.655Z,10.32
2022-11-24T13:05:25.164Z,10.41
2022-11-24T13:07:58.713Z,10.23
2022-11-24T13:10:54.917Z,10.00
2022-11-24T13:13:26.437Z,9.80
2022-11-24T13:16:34.557Z,9.64
2022-11-24T13:18:48.049Z,9.52
2022-11-24T13:21:47.705Z,9.47
2022-11-24T13:26:51.118Z,9.34
2022-11-24T13:29:29.048Z,9.31
2022-11-24T13:32:03.116Z,9.30
2022-11-24T13:34:41.249Z,9.30
2022-11-24T13:37:31.192Z,9.26
2022-11-24T13:40:13.565Z,9.26
2022-11-24T13:43:03.550Z,9.20
2022-11-24T13:45:41.954Z,9.16
2022-11-24T13:48:19.872Z,9.11
2022-11-24T13:50:52.016Z,9.02
2022-11-24T13:53:43.739Z,8.95
2022-11-24T13:56:12.169Z,8.91
2022-11-24T13:58:44.692Z,8.82
2022-11-24T14:01:20.810Z,8.76
2022-11-24T14:06:54.582Z,8.57
2022-11-24T14:09:26.136Z,8.90
2022-11-24T14:11:59.532Z,9.31
2022-11-24T14:14:28.426Z,9.57
2022-11-24T14:17:06.635Z,9.66
2022-11-24T14:19:35.567Z,9.29
2022-11-24T14:22:03.908Z,9.06
2022-11-24T14:24:38.106Z,8.92
2022-11-24T14:27:14.389Z,8.75
2022-11-24T14:29:56.184Z,8.51
2022-11-24T14:32:24.973Z,8.29
2022-11-24T14:34:54.565Z,8.11
2022-11-24T14:37:23.472Z,7.97
2022-11-24T14:39:52.463Z,7.84
2022-11-24T14:42:25.351Z,7.69
2022-11-24T14:44:54.546Z,7.57
2022-11-24T14:47:30.877Z,7.45
2022-11-24T14:50:08.986Z,7.33
2022-11-24T14:52:43.849Z,7.23
2022-11-24T14:55:24.081Z,7.11
2022-11-24T14:57:52.489Z,6.99
2022-11-24T15:00:29.457Z,6.92
2022-11-24T15:03:00.754Z,6.81
2022-11-24T15:05:47.939Z,6.73
2022-11-24T15:08:16.421Z,6.68
2022-11-24T15:10:45.263Z,6.65
2022-11-24T15:13:24.548Z,6.63
2022-11-24T15:16:03.286Z,6.64
2022-11-24T15:18:38.201Z,6.68
2022-11-24T15:21:06.707Z,6.70
2022-11-24T15:23:35.779Z,6.70
2022-11-24T15:26:04.567Z,6.67
2022-11-24T15:28:33.359Z,6.62
2022-11-24T15:31:03.400Z,6.57
2022-11-24T15:33:32.233Z,6.52
2022-11-24T15:36:00.850Z,6.45
2022-11-24T15:38:29.230Z,6.39
2022-11-24T15:40:59.354Z,6.31
2022-11-24T15:43:39.297Z,6.23
2022-11-24T15:46:08.806Z,6.14
2022-11-24T15:48:37.083Z,6.08
2022-11-24T15:51:11.920Z,6.01
2022-11-24T15:53:42.546Z,5.95
2022-11-24T15:56:23.931Z,5.90
2022-11-24T15:58:53.437Z,5.83
2022-11-24T16:01:23.002Z,5.78
2022-11-24T16:03:51.572Z,5.73
2022-11-24T16:06:24.532Z,5.70
2022-11-24T16:08:54.708Z,5.66
2022-11-24T16:11:23.629Z,5.63
2022-11-24T16:13:53.744Z,5.62
2022-11-24T16:16:23.768Z,5.60
2022-11-24T16:18:52.610Z,5.59
2022-11-24T16:21:21.248Z,5.58
2022-11-24T16:23:49.800Z,5.58
2022-11-24T16:26:18.264Z,5.57
2022-11-24T16:28:46.690Z,5.56
2022-11-24T16:31:16.619Z,5.54
2022-11-24T16:33:46.674Z,5.52
2022-11-24T16:36:15.306Z,5.48
2022-11-24T16:38:44.204Z,5.46
2022-11-24T16:41:13.314Z,5.42
2022-11-24T16:43:41.932Z,5.39
2022-11-24T16:46:16.723Z,5.37
2022-11-24T16:48:46.428Z,5.33
2022-11-24T16:51:15.339Z,5.30
2022-11-24T16:53:44.003Z,5.27
2022-11-24T16:56:12.846Z,5.24
2022-11-24T16:58:41.369Z,5.21
2022-11-24T17:01:11.317Z,5.19
2022-11-24T17:03:40.286Z,5.18
2022-11-24T17:06:12.968Z,5.17
2022-11-24T17:08:41.752Z,5.17
2022-11-24T17:11:11.466Z,5.20
2022-11-24T17:13:40.252Z,5.23
2022-11-24T17:16:10.205Z,5.26
2022-11-24T17:18:39.080Z,5.29
2022-11-24T17:21:09.956Z,5.32
2022-11-24T17:23:39.133Z,5.36
2022-11-24T17:26:08.805Z,5.40
2022-11-24T17:28:37.492Z,5.43
2022-11-24T17:31:07.202Z,5.43
2022-11-24T17:33:36.021Z,5.42
2022-11-24T17:36:05.087Z,5.40
2022-11-24T17:38:33.670Z,5.38
2022-11-24T17:41:02.977Z,5.35
2022-11-24T17:43:31.557Z,5.33
2022-11-24T17:46:01.434Z,5.34
2022-11-24T17:48:30.874Z,5.33
2022-11-24T17:51:08.271Z,5.31
2022-11-24T17:53:37.466Z,5.30
2022-11-24T17:56:06.663Z,5.24
2022-11-24T17:58:41.333Z,5.22
2022-11-24T18:01:11.945Z,5.16
2022-11-24T18:03:41.429Z,5.13
2022-11-24T18:06:11.438Z,5.10
2022-11-24T18:08:41.362Z,5.06
2022-11-24T18:11:11.070Z,5.03
2022-11-24T18:13:59.965Z,4.99
2022-11-24T18:16:30.690Z,4.96
2022-11-24T18:19:08.245Z,4.93
2022-11-24T18:21:38.585Z,4.91
2022-11-24T18:24:07.532Z,4.88
2022-11-24T18:26:36.276Z,4.83
2022-11-24T18:29:05.162Z,4.81
2022-11-24T18:31:35.891Z,4.79
2022-11-24T18:34:05.705Z,4.77
2022-11-24T18:36:35.200Z,4.77
2022-11-24T18:39:05.335Z,4.74
2022-11-24T18:41:34.835Z,4.68
2022-11-24T18:44:08.123Z,4.61
2022-11-24T18:46:37.709Z,4.54
2022-11-24T18:49:07.392Z,4.50
2022-11-24T18:51:36.137Z,4.50
2022-11-24T18:54:05.949Z,4.47
2022-11-24T18:56:34.438Z,4.46
2022-11-24T18:59:02.811Z,4.46
2022-11-24T19:01:32.579Z,4.45
2022-11-24T19:04:02.438Z,4.44
2022-11-24T19:06:35.132Z,4.41
2022-11-24T19:09:05.546Z,4.42
2022-11-24T19:11:35.871Z,4.43
2022-11-24T19:14:05.712Z,4.45
2022-11-24T19:16:34.898Z,4.43
2022-11-24T19:19:03.885Z,4.43
2022-11-24T19:21:33.215Z,4.40
2022-11-24T19:24:05.418Z,4.39
2022-11-24T19:26:37.513Z,4.37
2022-11-24T19:29:06.945Z,4.31
2022-11-24T19:31:36.202Z,4.30
2022-11-24T19:34:06.135Z,4.27
2022-11-24T19:36:34.819Z,4.24
2022-11-24T19:39:05.251Z,4.20
2022-11-24T19:41:34.648Z,4.16
2022-11-24T19:44:03.130Z,4.10
2022-11-24T19:46:31.723Z,4.06
2022-11-24T19:49:01.020Z,4.01
2022-11-24T19:51:33.583Z,3.96
2022-11-24T19:54:02.379Z,3.94
2022-11-24T19:56:32.197Z,3.93
2022-11-24T19:59:01.189Z,3.89
2022-11-24T20:01:33.943Z,3.88
2022-11-24T20:04:07.240Z,3.84
2022-11-24T20:06:37.386Z,3.81
2022-11-24T20:09:07.099Z,3.77
2022-11-24T20:11:36.056Z,3.75
2022-11-24T20:14:04.572Z,3.74
2022-11-24T20:16:34.156Z,3.72
2022-11-24T20:19:06.249Z,3.70
2022-11-24T20:21:36.164Z,3.67
2022-11-24T20:24:06.179Z,3.63
2022-11-24T20:26:36.175Z,3.60
2022-11-24T20:29:05.190Z,3.55
2022-11-24T20:31:38.198Z,3.51
2022-11-24T20:34:07.288Z,3.45
2022-11-24T20:36:36.678Z,3.40
2022-11-24T20:39:07.720Z,3.34
2022-11-24T20:41:37.532Z,3.30
2022-11-24T20:44:08.505Z,3.26
2022-11-24T20:46:38.386Z,3.24
2022-11-24T20:49:08.039Z,3.25
2022-11-24T20:51:42.313Z,3.26
2022-11-24T20:54:11.756Z,3.28
2022-11-24T20:56:41.739Z,3.30
2022-11-24T20:59:21.994Z,3.32
2022-11-24T21:01:51.282Z,3.33
2022-11-24T21:04:21.566Z,3.37
2022-11-24T21:06:50.409Z,3.41
2022-11-24T21:09:19.094Z,3.46
2022-11-24T21:11:48.292Z,3.50
2022-11-24T21:14:17.287Z,3.52
2022-11-24T21:16:45.947Z,3.55
2022-11-24T21:19:15.276Z,3.57
2022-11-24T21:21:43.959Z,3.60
2022-11-24T21:24:13.637Z,3.63
2022-11-24T21:26:42.429Z,3.66
2022-11-24T21:29:12.963Z,3.69
2022-11-24T21:31:41.874Z,3.72
2022-11-24T21:34:14.231Z,3.76
2022-11-24T21:36:45.295Z,3.78
2022-11-24T21:39:14.964Z,3.81
2022-11-24T21:41:43.824Z,3.82
2022-11-24T21:44:13.212Z,3.85
2022-11-24T21:46:46.151Z,3.86
2022-11-24T21:49:19.951Z,3.86
2022-11-24T21:51:48.473Z,3.89
2022-11-24T21:54:16.955Z,3.91
2022-11-24T21:56:45.641Z,3.94
2022-11-24T21:59:13.919Z,3.96
2022-11-24T22:01:42.342Z,3.97
2022-11-24T22:04:11.305Z,3.99
2022-11-24T22:06:39.978Z,4.01
2022-11-24T22:09:08.255Z,4.04
2022-11-24T22:11:37.043Z,4.04
2022-11-24T22:14:05.628Z,4.06
2022-11-24T22:16:33.964Z,4.06
2022-11-24T22:19:02.795Z,4.08
2022-11-24T22:21:33.590Z,4.09
2022-11-24T22:24:02.629Z,4.11
2022-11-24T22:26:31.520Z,4.12
2022-11-24T22:28:59.901Z,4.12
2022-11-24T22:31:30.105Z,4.12
2022-11-24T22:33:59.321Z,4.14
2022-11-24T22:36:29.030Z,4.16
2022-11-24T22:38:58.857Z,4.19
2022-11-24T22:41:28.065Z,4.21
2022-11-24T22:43:56.522Z,4.23
2022-11-24T22:46:30.022Z,4.25
2022-11-24T22:48:59.429Z,4.28
2022-11-24T22:51:29.357Z,4.29
2022-11-24T22:53:59.257Z,4.31
2022-11-24T22:56:33.787Z,4.33
2022-11-24T22:59:02.943Z,4.34
2022-11-24T23:01:32.075Z,4.36
2022-11-24T23:04:00.626Z,4.38
2022-11-24T23:06:29.656Z,4.40
2022-11-24T23:08:59.334Z,4.42
2022-11-24T23:11:36.341Z,4.44
2022-11-24T23:14:07.760Z,4.46
2022-11-24T23:16:36.140Z,4.48
2022-11-24T23:19:04.760Z,4.50
2022-11-24T23:21:34.348Z,4.55
2022-11-24T23:24:03.977Z,4.62
2022-11-24T23:26:33.748Z,4.66
2022-11-24T23:29:02.785Z,4.67
2022-11-24T23:31:31.539Z,4.70
2022-11-24T23:34:01.116Z,4.75
2022-11-24T23:36:30.071Z,4.79
2022-11-24T23:39:05.722Z,4.85
2022-11-24T23:41:34.306Z,4.92
2022-11-24T23:44:02.991Z,4.97
2022-11-24T23:46:31.372Z,5.03
2022-11-24T23:48:59.750Z,5.08
2022-11-24T23:51:29.430Z,5.13
2022-11-24T23:53:58.274Z,5.17
2022-11-24T23:56:28.268Z,5.23
2022-11-24T23:58:57.056Z,5.27
